Time;durP1;ratioP1;P1;durP2;ratioP2;P2;SDS_P1;SDS_P2;PMS_P1;PMS_P2;Temp;Humidity;BMP_temperature;BMP_pressure;BME280_temperature;BME280_humidity;BME280_pressure;Samples;Min_cycle;Max_cycle;Signal;HPM_P1;HPM_P2
2023/07/06 00:02:00;;;;;;;77.75;74.07;;;;;;;22.69;42.32;101431.03;5093370;28;20032;-68
2023/07/06 00:04:26;;;;;;;76.38;72.15;;;;;;;22.66;42.04;101432.47;5093642;28;20395;-68
2023/07/06 00:06:52;;;;;;;76.03;72.18;;;;;;;22.65;42.32;101438.28;5093485;28;20085;-68
2023/07/06 00:09:18;;;;;;;76.43;72.45;;;;;;;22.63;42.50;101435.84;5093684;28;20052;-69
2023/07/06 00:11:44;;;;;;;75.20;71.60;;;;;;;22.61;42.46;101435.31;5092183;28;20028;-67
2023/07/06 00:14:11;;;;;;;77.00;73.40;;;;;;;22.60;41.99;101432.88;5093233;28;20031;-69
2023/07/06 00:16:41;;;;;;;77.30;73.65;;;;;;;22.58;42.46;101435.94;5093022;28;20418;-67
2023/07/06 00:19:07;;;;;;;79.97;76.13;;;;;;;22.54;42.37;101440.44;5093257;28;20059;-69
2023/07/06 00:21:32;;;;;;;76.53;72.65;;;;;;;22.54;42.60;101436.88;5094015;28;20067;-69
2023/07/06 00:23:57;;;;;;;76.85;73.28;;;;;;;22.51;42.61;101432.78;5093524;28;20028;-67
2023/07/06 00:26:23;;;;;;;78.07;73.93;;;;;;;22.50;42.03;101433.09;5092964;28;20036;-69
2023/07/06 00:28:49;;;;;;;79.00;75.20;;;;;;;22.46;42.62;101430.94;5092947;28;20077;-67
2023/07/06 00:31:32;;;;;;;77.43;73.32;;;;;;;22.44;42.06;101429.63;5093108;28;20037;-67
2023/07/06 00:34:03;;;;;;;77.25;73.75;;;;;;;22.42;42.39;101424.41;5093292;28;20455;-67
2023/07/06 00:36:32;;;;;;;75.03;71.35;;;;;;;22.39;42.15;101430.53;5093405;28;20052;-67
2023/07/06 00:38:58;;;;;;;74.97;71.57;;;;;;;22.38;42.63;101436.38;5093168;28;20114;-68
2023/07/06 00:41:23;;;;;;;75.13;71.65;;;;;;;22.36;42.43;101433.09;5093038;28;20440;-67
2023/07/06 00:43:52;;;;;;;73.75;70.05;;;;;;;22.34;42.25;101435.34;5092104;28;20036;-68
2023/07/06 00:46:19;;;;;;;75.72;71.47;;;;;;;22.31;42.41;101439.50;5093048;28;20020;-68
2023/07/06 00:48:47;;;;;;;75.97;72.47;;;;;;;22.30;42.11;101442.56;5092846;28;20077;-67
2023/07/06 00:51:27;;;;;;;78.30;74.10;;;;;;;22.27;42.20;101438.47;5092988;28;20032;-67
2023/07/06 00:53:58;;;;;;;73.47;70.07;;;;;;;22.26;42.31;101442.38;5095808;28;20078;-68
2023/07/06 00:56:28;;;;;;;72.53;69.20;;;;;;;22.23;42.41;101441.03;5097326;28;20028;-68
2023/07/06 00:59:02;;;;;;;70.53;67.32;;;;;;;22.21;42.16;101445.22;5097141;28;20024;-68
2023/07/06 01:01:30;;;;;;;73.55;69.95;;;;;;;22.19;41.95;101439.16;5096110;28;20036;-68
2023/07/06 01:03:56;;;;;;;73.22;69.53;;;;;;;22.17;42.54;101446.91;5096402;28;20467;-68
2023/07/06 01:06:30;;;;;;;75.10;71.50;;;;;;;22.14;42.70;101442.00;5096658;28;20028;-68
2023/07/06 01:08:57;;;;;;;71.30;68.00;;;;;;;22.11;42.26;101428.88;5096730;28;20078;-68
2023/07/06 01:11:23;;;;;;;72.82;69.13;;;;;;;22.09;42.51;101440.16;5096166;28;20445;-68
2023/07/06 01:13:51;;;;;;;74.20;70.63;;;;;;;22.08;42.25;101440.50;5096247;28;20064;-67
2023/07/06 01:16:42;;;;;;;72.97;69.57;;;;;;;22.05;42.31;101433.66;5096411;28;20029;-68
2023/07/06 01:19:30;;;;;;;73.30;69.70;;;;;;;22.02;42.39;101437.84;5096299;28;20032;-68
2023/07/06 01:22:33;;;;;;;70.72;67.43;;;;;;;21.99;42.29;101435.66;5096160;28;20097;-68
2023/07/06 01:25:07;;;;;;;71.68;67.90;;;;;;;21.96;42.54;101433.53;5096364;28;20059;-68
2023/07/06 01:27:51;;;;;;;72.43;69.03;;;;;;;21.94;42.69;101434.94;5096303;28;20028;-68
2023/07/06 01:30:36;;;;;;;74.35;70.72;;;;;;;21.90;42.47;101434.75;5096489;28;20036;-68
2023/07/06 01:33:07;;;;;;;71.38;67.97;;;;;;;21.88;42.43;101431.47;5096723;28;20115;-68
2023/07/06 01:35:57;;;;;;;72.05;68.65;;;;;;;21.87;42.53;101435.31;5096611;28;20024;-69
2023/07/06 01:38:23;;;;;;;71.55;68.07;;;;;;;21.84;42.62;101435.94;5096527;28;20032;-68
2023/07/06 01:40:49;;;;;;;70.93;67.70;;;;;;;21.82;42.74;101429.91;5096066;28;20025;-68
2023/07/06 01:43:16;;;;;;;69.90;66.38;;;;;;;21.79;42.68;101433.28;5095804;28;20036;-69
2023/07/06 01:45:42;;;;;;;68.82;64.88;;;;;;;21.78;42.44;101435.22;5096205;28;20127;-68
2023/07/06 01:48:13;;;;;;;69.53;66.28;;;;;;;21.76;42.33;101437.44;5096209;28;20031;-68
2023/07/06 01:50:54;;;;;;;71.78;68.05;;;;;;;21.74;42.93;101438.88;5095840;28;20024;-68
2023/07/06 01:53:32;;;;;;;69.80;66.38;;;;;;;21.72;42.32;101435.59;5096041;28;20056;-68
2023/07/06 01:56:11;;;;;;;67.95;64.80;;;;;;;21.71;42.56;101442.22;5095829;28;20020;-68
2023/07/06 01:58:45;;;;;;;68.00;64.68;;;;;;;21.68;42.39;101443.66;5096002;28;20067;-68
2023/07/06 02:01:16;;;;;;;69.30;66.10;;;;;;;21.65;42.38;101443.44;5095640;28;20036;-74
2023/07/06 02:03:42;;;;;;;68.07;64.57;;;;;;;21.63;43.03;101446.47;5095410;28;20027;-70
2023/07/06 02:06:10;;;;;;;66.72;63.42;;;;;;;21.61;42.89;101452.25;5095220;28;20036;-68
2023/07/06 02:08:41;;;;;;;67.68;64.03;;;;;;;21.59;42.50;101443.50;5095106;28;20059;-69
2023/07/06 02:11:10;;;;;;;66.72;63.33;;;;;;;21.57;42.77;101443.00;5095432;28;20036;-68
2023/07/06 02:13:36;;;;;;;67.68;64.30;;;;;;;21.55;42.86;101436.97;5095004;28;20103;-68
2023/07/06 02:16:05;;;;;;;70.50;66.85;;;;;;;21.53;42.75;101436.47;5095559;28;20531;-69
2023/07/06 02:18:33;;;;;;;69.45;65.90;;;;;;;21.52;42.47;101434.00;5093962;28;20031;-69
2023/07/06 02:21:01;;;;;;;68.72;65.03;;;;;;;21.48;42.47;101431.03;5095243;28;20024;-68
2023/07/06 02:23:26;;;;;;;67.50;64.25;;;;;;;21.47;42.81;101429.44;5095011;28;20024;-70
2023/07/06 02:25:53;;;;;;;67.78;64.57;;;;;;;21.45;42.97;101428.09;5095454;28;20038;-68
2023/07/06 02:28:21;;;;;;;68.38;65.05;;;;;;;21.42;42.44;101426.75;5095241;28;20028;-68
2023/07/06 02:30:48;;;;;;;67.38;64.07;;;;;;;21.41;42.87;101429.78;5095265;28;20380;-68
2023/07/06 02:33:16;;;;;;;68.22;64.88;;;;;;;21.38;43.10;101428.44;5093845;28;20197;-74
2023/07/06 02:35:42;;;;;;;67.18;63.92;;;;;;;21.36;42.87;101423.22;5094986;28;20028;-68
2023/07/06 02:38:08;;;;;;;69.35;66.05;;;;;;;21.35;42.84;101429.03;5094985;28;20424;-68
2023/07/06 02:40:35;;;;;;;68.07;64.68;;;;;;;21.32;42.84;101424.97;5095325;28;20035;-69
2023/07/06 02:43:01;;;;;;;68.20;64.68;;;;;;;21.31;42.76;101420.56;5095306;28;20024;-68
2023/07/06 02:45:27;;;;;;;70.50;67.18;;;;;;;21.29;42.55;101427.47;5094680;28;20038;-68
2023/07/06 02:47:53;;;;;;;68.25;65.05;;;;;;;21.26;42.55;101428.88;5094704;28;20034;-68
2023/07/06 02:50:20;;;;;;;67.28;64.15;;;;;;;21.25;42.78;101432.75;5095103;28;20024;-68
2023/07/06 02:52:45;;;;;;;70.68;66.90;;;;;;;21.23;42.58;101432.22;5094587;28;20111;-68
2023/07/06 02:55:11;;;;;;;67.60;64.50;;;;;;;21.22;43.15;101443.50;5094602;28;20460;-69
2023/07/06 02:57:39;;;;;;;67.88;64.65;;;;;;;21.20;43.08;101434.78;5094407;28;20064;-68
2023/07/06 03:00:12;;;;;;;66.68;63.55;;;;;;;21.17;42.98;101439.72;5094467;28;20060;-69
2023/07/06 03:02:38;;;;;;;66.45;63.20;;;;;;;21.14;42.69;101437.59;5093741;28;20082;-68
2023/07/06 03:05:06;;;;;;;67.88;64.57;;;;;;;21.13;42.68;101446.94;5094599;28;20081;-68
2023/07/06 03:07:34;;;;;;;69.22;65.68;;;;;;;21.11;43.15;101448.34;5093478;28;20457;-68
2023/07/06 03:10:04;;;;;;;65.88;62.85;;;;;;;21.10;42.58;101447.53;5093075;28;20036;-69
2023/07/06 03:12:33;;;;;;;68.82;65.38;;;;;;;21.08;42.64;101443.44;5092798;28;20032;-68
2023/07/06 03:15:00;;;;;;;68.43;64.70;;;;;;;21.06;42.70;101449.22;5093536;28;20034;-69
2023/07/06 03:17:25;;;;;;;67.70;64.50;;;;;;;21.03;43.07;101446.25;5094234;28;20028;-69
2023/07/06 03:19:51;;;;;;;69.50;66.07;;;;;;;21.03;42.84;101454.50;5094228;28;20082;-68
2023/07/06 03:22:17;;;;;;;67.65;64.55;;;;;;;21.01;42.95;101454.78;5094006;28;20024;-67
2023/07/06 03:24:44;;;;;;;67.30;63.75;;;;;;;20.97;43.15;101456.50;5093927;28;20043;-68
2023/07/06 03:27:10;;;;;;;66.97;63.67;;;;;;;20.96;43.22;101458.44;5092864;28;20054;-68
2023/07/06 03:29:36;;;;;;;66.40;63.10;;;;;;;20.95;43.30;101465.03;5093711;28;20498;-67
2023/07/06 03:32:06;;;;;;;67.38;63.65;;;;;;;20.94;43.34;101459.81;5093840;28;20035;-67
2023/07/06 03:34:32;;;;;;;69.35;65.95;;;;;;;20.92;42.91;101464.81;5093806;28;20036;-67
2023/07/06 03:36:58;;;;;;;67.35;63.85;;;;;;;20.91;43.16;101468.66;5092575;28;20479;-67
2023/07/06 03:39:23;;;;;;;67.03;63.83;;;;;;;20.89;43.19;101468.13;5094037;28;20123;-67
2023/07/06 03:41:48;;;;;;;68.80;65.40;;;;;;;20.87;43.29;101476.69;5093251;28;20032;-67
2023/07/06 03:44:14;;;;;;;66.93;63.67;;;;;;;20.86;43.27;101474.22;5092497;28;20086;-67
2023/07/06 03:46:41;;;;;;;66.50;63.40;;;;;;;20.83;42.78;101469.31;5093399;28;20056;-67
2023/07/06 03:49:10;;;;;;;66.65;63.13;;;;;;;20.81;42.88;101475.09;5092505;28;20036;-67
2023/07/06 03:51:36;;;;;;;67.63;64.13;;;;;;;20.80;43.22;101475.41;5093925;28;20032;-67
2023/07/06 03:54:06;;;;;;;65.55;62.33;;;;;;;20.79;42.98;101479.25;5093612;28;20114;-67
2023/07/06 03:56:33;;;;;;;68.22;64.38;;;;;;;20.77;43.10;101482.31;5093581;28;20040;-69
2023/07/06 03:58:59;;;;;;;66.72;62.10;;;;;;;20.75;43.44;101484.50;5093536;28;20509;-68
2023/07/06 04:01:27;;;;;;;64.22;61.13;;;;;;;20.72;43.39;101488.66;5093131;28;20070;-73
2023/07/06 04:03:52;;;;;;;63.85;60.13;;;;;;;20.71;42.90;101483.47;5092244;28;20036;-67
2023/07/06 04:06:19;;;;;;;65.15;61.80;;;;;;;20.69;42.97;101492.00;5093515;28;20039;-67
2023/07/06 04:08:44;;;;;;;63.33;60.28;;;;;;;20.68;43.43;101492.28;5093452;28;20044;-69
2023/07/06 04:11:10;;;;;;;64.22;61.03;;;;;;;20.66;42.88;101489.84;5093194;28;20115;-69
2023/07/06 04:13:35;;;;;;;63.50;60.50;;;;;;;20.64;43.40;101489.31;5092106;28;20047;-67
2023/07/06 04:16:01;;;;;;;63.58;60.38;;;;;;;20.63;43.48;101497.84;5092672;28;20029;-67
2023/07/06 04:18:26;;;;;;;64.70;61.15;;;;;;;20.62;43.03;101493.47;5092154;28;20460;-68
2023/07/06 04:20:53;;;;;;;63.58;60.53;;;;;;;20.59;43.08;101489.38;5093376;28;20515;-69
2023/07/06 04:23:19;;;;;;;63.50;60.47;;;;;;;20.58;43.27;101490.47;5093259;28;20036;-68
2023/07/06 04:25:44;;;;;;;64.95;61.67;;;;;;;20.57;43.51;101490.78;5092961;28;20421;-68
2023/07/06 04:28:12;;;;;;;64.90;61.70;;;;;;;20.54;43.47;101492.16;5078858;28;20047;-69
2023/07/06 04:30:40;;;;;;;64.55;61.55;;;;;;;20.53;43.42;101490.50;5097355;28;20055;-68
2023/07/06 04:33:09;;;;;;;64.22;61.20;;;;;;;20.52;43.12;101492.44;5096304;28;20085;-68
2023/07/06 04:35:35;;;;;;;65.75;62.17;;;;;;;20.50;43.54;101496.56;5097242;28;20032;-68
2023/07/06 04:38:01;;;;;;;63.63;60.33;;;;;;;20.49;43.55;101494.94;5097280;28;20101;-69
2023/07/06 04:40:27;;;;;;;64.10;60.58;;;;;;;20.47;43.17;101500.72;5097499;28;20456;-69
2023/07/06 04:42:54;;;;;;;64.03;60.72;;;;;;;20.46;43.59;101504.59;5096719;28;20487;-68
2023/07/06 04:45:22;;;;;;;63.75;60.20;;;;;;;20.44;43.43;101503.25;5097066;28;20028;-68
2023/07/06 04:47:48;;;;;;;64.50;60.75;;;;;;;20.44;43.63;101505.97;5095825;28;20115;-68
2023/07/06 04:50:22;;;;;;;64.85;61.55;;;;;;;20.42;43.66;101513.69;5097028;28;20106;-68
2023/07/06 04:52:53;;;;;;;65.63;62.33;;;;;;;20.41;43.26;101509.28;5096965;28;20040;-68
2023/07/06 04:55:22;;;;;;;62.88;59.67;;;;;;;20.39;43.70;101509.59;5097208;28;20149;-68
2023/07/06 04:57:50;;;;;;;63.92;60.80;;;;;;;20.39;43.34;101511.53;5097833;28;20050;-68
2023/07/06 05:00:21;;;;;;;64.07;60.25;;;;;;;20.37;43.30;101514.56;5096791;28;20027;-68
2023/07/06 05:02:47;;;;;;;67.65;63.75;;;;;;;20.36;43.59;101523.91;5097336;28;20459;-67
2023/07/06 05:05:13;;;;;;;62.42;59.20;;;;;;;20.35;43.36;101519.50;5095557;28;20032;-70
2023/07/06 05:07:41;;;;;;;63.03;59.15;;;;;;;20.32;43.54;101520.91;5096120;28;20032;-70
2023/07/06 05:10:08;;;;;;;65.30;61.97;;;;;;;20.32;43.69;101522.84;5096288;28;20119;-70
2023/07/06 05:12:33;;;;;;;63.70;60.10;;;;;;;20.31;43.32;101521.22;5095452;28;20043;-70
2023/07/06 05:14:59;;;;;;;60.92;57.97;;;;;;;20.29;43.39;101518.75;5096513;28;20032;-70
2023/07/06 05:17:24;;;;;;;63.05;59.65;;;;;;;20.29;43.79;101520.69;5095207;28;20036;-69
2023/07/06 05:19:50;;;;;;;64.82;61.53;;;;;;;20.27;43.82;101520.94;5096110;28;20472;-70
2023/07/06 05:22:18;;;;;;;63.60;60.42;;;;;;;20.28;43.50;101530.00;5096284;28;20092;-68
2023/07/06 05:24:44;;;;;;;63.90;59.67;;;;;;;20.26;43.55;101519.31;5096363;28;20102;-68
2023/07/06 05:27:10;;;;;;;61.30;58.03;;;;;;;20.25;43.98;101528.66;5096607;28;20101;-68
2023/07/06 05:29:35;;;;;;;64.60;61.08;;;;;;;20.25;43.59;101530.56;5095979;28;20032;-71
2023/07/06 05:32:00;;;;;;;63.90;60.28;;;;;;;20.24;43.91;101524.28;5096163;28;20032;-69
2023/07/06 05:34:26;;;;;;;62.15;58.70;;;;;;;20.24;43.60;101523.47;5094427;28;20568;-68
2023/07/06 05:36:51;;;;;;;62.15;58.85;;;;;;;20.22;43.75;101523.75;5095292;28;20028;-70
2023/07/06 05:39:16;;;;;;;62.90;59.70;;;;;;;20.21;44.07;101519.38;5094903;28;20475;-69
2023/07/06 05:41:43;;;;;;;63.05;59.85;;;;;;;20.20;43.99;101520.47;5096452;28;20362;-69
2023/07/06 05:44:09;;;;;;;62.92;59.75;;;;;;;20.19;43.43;101523.50;5096266;28;20035;-70
2023/07/06 05:46:34;;;;;;;65.15;60.30;;;;;;;20.19;43.61;101527.06;5095749;28;20032;-77
2023/07/06 05:49:00;;;;;;;63.30;59.80;;;;;;;20.19;43.91;101529.81;5096066;28;20082;-70
2023/07/06 05:51:25;;;;;;;63.45;59.75;;;;;;;20.18;44.04;101530.91;5096350;28;20077;-68
2023/07/06 05:53:51;;;;;;;67.03;62.47;;;;;;;20.17;43.72;101532.03;5095968;28;20035;-69
2023/07/06 05:56:18;;;;;;;63.35;59.85;;;;;;;20.17;43.60;101528.47;5095639;28;20458;-69
2023/07/06 05:58:44;;;;;;;66.10;62.15;;;;;;;20.15;44.10;101539.72;5095689;28;20086;-70
2023/07/06 06:01:10;;;;;;;62.85;59.17;;;;;;;20.16;43.86;101533.13;5096181;28;20503;-68
2023/07/06 06:03:36;;;;;;;65.10;61.20;;;;;;;20.15;44.10;101534.22;5095678;28;20371;-70
2023/07/06 06:06:01;;;;;;;63.97;60.65;;;;;;;20.16;44.30;101541.38;5095412;28;20028;-67
2023/07/06 06:08:28;;;;;;;61.97;58.75;;;;;;;20.15;44.84;101545.19;5095977;28;20372;-68
2023/07/06 06:10:55;;;;;;;63.85;60.55;;;;;;;20.16;44.68;101540.53;5095253;28;20560;-67
2023/07/06 06:13:21;;;;;;;65.85;62.55;;;;;;;20.16;44.95;101548.75;5095371;28;20089;-66
2023/07/06 06:15:47;;;;;;;63.67;60.20;;;;;;;20.15;45.09;101547.94;5095500;28;20028;-68
2023/07/06 06:18:13;;;;;;;62.33;59.22;;;;;;;20.15;45.06;101547.13;5095338;28;20039;-68
2023/07/06 06:20:41;;;;;;;62.58;58.53;;;;;;;20.15;44.92;101556.16;5095211;28;20533;-69
2023/07/06 06:23:10;;;;;;;68.22;64.03;;;;;;;20.15;44.90;101558.91;5093950;28;20464;-68
2023/07/06 06:25:38;;;;;;;63.72;59.35;;;;;;;20.16;44.77;101559.72;5095150;28;20036;-68
2023/07/06 06:28:04;;;;;;;64.72;60.97;;;;;;;20.15;44.56;101560.84;5095502;28;20032;-69
2023/07/06 06:30:30;;;;;;;66.53;62.40;;;;;;;20.16;44.94;101566.06;5094768;28;20097;-69
2023/07/06 06:32:57;;;;;;;65.60;61.88;;;;;;;20.15;44.70;101569.88;5095189;28;20044;-69
2023/07/06 06:35:27;;;;;;;64.80;60.90;;;;;;;20.16;44.78;101576.19;5094962;28;20152;-69
2023/07/06 06:37:54;;;;;;;66.57;63.13;;;;;;;20.16;44.95;101577.03;5094993;28;20107;-69
2023/07/06 06:40:21;;;;;;;66.80;62.70;;;;;;;20.16;44.96;101570.69;5094884;28;20036;-71
2023/07/06 06:42:48;;;;;;;67.10;62.83;;;;;;;20.16;44.87;101571.53;5094876;28;20038;-69
2023/07/06 06:45:15;;;;;;;65.10;61.30;;;;;;;20.16;44.98;101568.81;5094743;28;20036;-68
2023/07/06 06:47:41;;;;;;;66.60;62.70;;;;;;;20.17;44.67;101581.41;5094711;28;20483;-68
2023/07/06 06:50:13;;;;;;;65.85;61.85;;;;;;;20.19;45.14;101581.13;5093289;28;20035;-68
2023/07/06 06:52:40;;;;;;;59.85;56.95;;;;;;;20.18;45.01;101585.75;5094880;28;20066;-68
2023/07/06 06:55:07;;;;;;;67.50;63.70;;;;;;;20.19;45.05;101581.94;5094488;28;20032;-68
2023/07/06 06:57:33;;;;;;;68.30;64.32;;;;;;;20.18;44.80;101577.53;5094994;28;20035;-68
2023/07/06 06:59:59;;;;;;;66.20;62.50;;;;;;;20.20;45.04;101589.03;5093203;28;20040;-68
2023/07/06 07:02:25;;;;;;;66.40;62.35;;;;;;;20.21;44.92;101587.97;5093042;28;20032;-69
2023/07/06 07:04:50;;;;;;;66.45;62.25;;;;;;;20.23;44.80;101590.41;5093033;28;20135;-68
2023/07/06 07:07:16;;;;;;;64.10;60.65;;;;;;;20.23;44.80;101598.63;5094421;28;20436;-68
2023/07/06 07:09:44;;;;;;;66.55;61.08;;;;;;;20.25;44.79;101593.69;5095090;28;20044;-68
2023/07/06 07:12:10;;;;;;;66.28;62.60;;;;;;;20.27;45.36;101599.69;5094236;28;20028;-67
2023/07/06 07:14:36;;;;;;;64.18;60.78;;;;;;;20.27;45.09;101596.97;5094117;28;20024;-68
2023/07/06 07:17:03;;;;;;;67.57;62.78;;;;;;;20.29;45.19;101600.25;5094201;28;20384;-68
2023/07/06 07:19:28;;;;;;;65.78;61.75;;;;;;;20.29;44.92;101592.81;5092966;28;20046;-68
2023/07/06 07:21:55;;;;;;;69.22;64.85;;;;;;;20.31;45.06;101601.59;5094287;28;20020;-68
2023/07/06 07:24:20;;;;;;;65.95;61.83;;;;;;;20.33;45.61;101601.28;5093780;28;20024;-71
2023/07/06 07:26:48;;;;;;;65.82;61.95;;;;;;;20.34;45.50;101604.88;5093875;28;20454;-68
2023/07/06 07:29:14;;;;;;;67.80;63.72;;;;;;;20.36;45.28;101606.22;5094088;28;20024;-68
2023/07/06 07:31:41;;;;;;;68.35;64.60;;;;;;;20.37;45.57;101605.09;5093065;28;20533;-69
2023/07/06 07:34:07;;;;;;;67.65;63.85;;;;;;;20.38;45.56;101614.13;5093240;28;20180;-69
2023/07/06 07:36:33;;;;;;;69.72;65.13;;;;;;;20.39;45.57;101602.09;5093756;28;20480;-68
2023/07/06 07:38:58;;;;;;;70.63;66.22;;;;;;;20.40;45.96;101614.69;5093664;28;20073;-67
2023/07/06 07:41:24;;;;;;;67.97;64.22;;;;;;;20.40;46.03;101611.94;5093598;28;20032;-68
2023/07/06 07:43:49;;;;;;;68.65;64.80;;;;;;;20.40;45.58;101609.19;5093615;28;20109;-68
2023/07/06 07:46:19;;;;;;;68.93;64.82;;;;;;;20.41;45.72;101605.31;5093972;28;20068;-68
2023/07/06 07:48:46;;;;;;;67.68;63.72;;;;;;;20.42;45.70;101607.78;5093223;28;20059;-69
2023/07/06 07:51:15;;;;;;;68.78;64.63;;;;;;;20.45;46.11;101603.66;5093436;28;20035;-68
2023/07/06 07:53:41;;;;;;;67.03;63.00;;;;;;;20.46;45.69;101603.38;5093334;28;20024;-68
2023/07/06 07:56:08;;;;;;;71.65;67.18;;;;;;;20.49;45.95;101605.53;5093448;28;20034;-68
2023/07/06 07:58:35;;;;;;;69.53;65.60;;;;;;;20.53;45.97;101603.03;5093760;28;20043;-68
2023/07/06 08:01:02;;;;;;;71.95;67.38;;;;;;;20.57;46.51;101609.63;5092741;28;20032;-72
2023/07/06 08:03:29;;;;;;;71.40;66.65;;;;;;;20.60;45.90;101610.97;5092761;28;20056;-67
2023/07/06 08:06:02;;;;;;;68.47;64.45;;;;;;;20.64;46.33;101609.28;5093455;28;20468;-69
2023/07/06 08:08:29;;;;;;;70.03;65.57;;;;;;;20.68;46.63;101604.84;5093629;28;20060;-67
2023/07/06 08:10:54;;;;;;;69.95;65.70;;;;;;;20.71;46.58;101613.34;5092197;28;20064;-68
2023/07/06 08:13:20;;;;;;;70.53;66.93;;;;;;;20.75;46.12;101610.81;5093095;28;20152;-68
2023/07/06 08:15:47;;;;;;;69.50;65.60;;;;;;;20.77;46.26;101616.84;5092949;28;20082;-68
2023/07/06 08:18:13;;;;;;;69.15;64.93;;;;;;;20.80;46.47;101608.00;5075537;28;20036;-67
2023/07/06 08:20:40;;;;;;;71.78;67.75;;;;;;;20.86;46.81;101615.06;5093361;28;20024;-66
2023/07/06 08:23:10;;;;;;;68.50;64.80;;;;;;;20.90;46.84;101615.31;5093038;28;20028;-68
2023/07/06 08:25:40;;;;;;;69.13;65.05;;;;;;;20.93;46.33;101615.56;5093058;28;20051;-68
2023/07/06 08:28:07;;;;;;;71.93;67.70;;;;;;;20.99;46.82;101623.72;5093063;28;20059;-67
2023/07/06 08:30:34;;;;;;;70.33;66.77;;;;;;;21.03;46.82;101630.28;5091951;28;20028;-67
2023/07/06 08:33:03;;;;;;;69.82;66.28;;;;;;;21.06;47.06;101636.00;5092865;28;20266;-68
2023/07/06 08:35:29;;;;;;;70.28;66.47;;;;;;;21.11;46.80;101629.66;5093107;28;20056;-68
2023/07/06 08:37:56;;;;;;;73.13;68.97;;;;;;;21.15;46.77;101617.78;5092982;28;20024;-68
2023/07/06 08:40:26;;;;;;;69.95;66.53;;;;;;;21.20;46.57;101625.16;5093694;28;20032;-68
2023/07/06 08:42:53;;;;;;;72.78;68.88;;;;;;;21.25;47.07;101625.09;5092811;28;20028;-67
2023/07/06 08:45:37;;;;;;;73.32;69.22;;;;;;;21.30;46.79;101632.47;5092928;28;20479;-67
2023/07/06 08:48:02;;;;;;;73.95;69.95;;;;;;;21.36;46.96;101634.03;5093572;28;20034;-67
2023/07/06 08:50:33;;;;;;;73.72;68.85;;;;;;;21.42;46.66;101632.06;5092343;28;20032;-68
2023/07/06 08:53:00;;;;;;;70.22;66.78;;;;;;;21.48;47.08;101633.63;5092746;28;20039;-67
2023/07/06 08:55:27;;;;;;;74.90;71.10;;;;;;;21.52;47.02;101634.66;5093143;28;20042;-67
2023/07/06 08:57:53;;;;;;;74.82;70.90;;;;;;;21.57;46.58;101635.44;5092713;28;20031;-68
2023/07/06 09:00:25;;;;;;;74.57;70.72;;;;;;;21.64;46.66;101632.31;5092550;28;20036;-67
2023/07/06 09:02:54;;;;;;;72.18;68.88;;;;;;;21.69;46.73;101636.94;5092461;28;20031;-67
2023/07/06 09:05:20;;;;;;;75.10;71.00;;;;;;;21.73;47.11;101648.97;5092343;28;20024;-67
2023/07/06 09:07:48;;;;;;;76.60;72.57;;;;;;;21.78;46.85;101644.22;5092435;28;20435;-67
2023/07/06 09:10:26;;;;;;;75.28;71.28;;;;;;;21.84;47.07;101647.72;5092354;28;20486;-67
2023/07/06 09:12:53;;;;;;;75.20;71.15;;;;;;;21.91;46.76;101647.34;5092612;28;20059;-68
2023/07/06 09:15:25;;;;;;;71.60;67.80;;;;;;;21.97;46.48;101652.50;5095798;28;20044;-69
2023/07/06 09:17:50;;;;;;;74.25;70.65;;;;;;;22.03;46.49;101651.28;5096914;28;20031;-69
2023/07/06 09:20:18;;;;;;;76.00;71.82;;;;;;;22.09;46.86;101643.75;5095119;28;20081;-69
2023/07/06 09:22:45;;;;;;;75.03;71.43;;;;;;;22.16;46.57;101637.91;5096403;28;20035;-70
2023/07/06 09:25:25;;;;;;;76.45;72.85;;;;;;;22.23;46.52;101646.63;5096548;28;20024;-69
2023/07/06 09:27:51;;;;;;;76.63;72.93;;;;;;;22.29;46.38;101644.59;5096346;28;20035;-69
2023/07/06 09:30:30;;;;;;;78.18;74.50;;;;;;;22.35;46.57;101643.38;5096207;28;20024;-68
2023/07/06 09:33:18;;;;;;;77.75;74.18;;;;;;;22.42;46.35;101652.91;5097059;28;20038;-68
2023/07/06 09:35:43;;;;;;;77.63;74.03;;;;;;;22.49;46.38;101655.28;5096104;28;20128;-69
2023/07/06 09:38:14;;;;;;;78.32;74.40;;;;;;;22.57;46.08;101651.00;5095985;28;20265;-69
2023/07/06 09:40:43;;;;;;;78.38;74.40;;;;;;;22.63;46.25;101653.38;5095705;28;20111;-71
2023/07/06 09:43:37;;;;;;;79.57;75.68;;;;;;;22.72;46.20;101653.50;5095962;28;20444;-70
2023/07/06 09:46:04;;;;;;;81.60;77.28;;;;;;;22.77;46.05;101656.16;5092638;28;20523;-70
2023/07/06 09:48:32;;;;;;;79.97;76.07;;;;;;;22.86;45.66;101656.28;5095622;28;20505;-70
2023/07/06 09:51:14;;;;;;;79.13;75.50;;;;;;;22.95;45.73;101656.38;5095666;28;20024;-69
2023/07/06 09:53:54;;;;;;;83.97;79.90;;;;;;;23.03;45.63;101667.56;5096003;28;20119;-69
2023/07/06 09:56:20;;;;;;;82.50;78.47;;;;;;;23.10;45.52;101661.63;5095497;28;20036;-70
2023/07/06 09:58:48;;;;;;;83.65;79.85;;;;;;;23.17;45.74;101662.06;5096257;28;20484;-69
2023/07/06 10:01:16;;;;;;;83.88;79.97;;;;;;;23.25;45.89;101669.59;5095464;28;20035;-68
2023/07/06 10:03:54;;;;;;;80.85;77.13;;;;;;;23.33;45.63;101674.44;5095508;28;20460;-69
2023/07/06 10:06:48;;;;;;;84.60;80.53;;;;;;;23.40;45.45;101664.91;5095559;28;20060;-70
2023/07/06 10:10:03;;;;;;;86.72;82.82;;;;;;;23.49;45.33;101672.16;5092963;28;20048;-69
2023/07/06 10:12:53;;;;;;;86.72;82.53;;;;;;;23.58;45.40;101672.25;5095083;28;20139;-69
2023/07/06 10:15:33;;;;;;;87.38;82.57;;;;;;;23.65;45.31;101672.66;5095347;28;20464;-69
2023/07/06 10:18:10;;;;;;;85.03;80.95;;;;;;;23.71;44.89;101668.69;5095471;28;20476;-69
2023/07/06 10:20:47;;;;;;;87.07;82.88;;;;;;;23.80;45.07;101679.00;5094928;28;20514;-69
2023/07/06 10:23:46;;;;;;;89.72;85.25;;;;;;;23.88;44.97;101670.00;5095029;28;20024;-70
2023/07/06 10:26:17;;;;;;;86.28;82.18;;;;;;;23.93;44.93;101670.69;5094770;28;20487;-69
2023/07/06 10:28:48;;;;;;;87.50;83.55;;;;;;;23.98;44.80;101673.31;5095192;28;20096;-69
2023/07/06 10:31:17;;;;;;;89.97;84.65;;;;;;;24.04;44.59;101663.00;5094988;28;20020;-71
2023/07/06 10:34:04;;;;;;;88.93;84.63;;;;;;;24.09;44.44;101660.13;5094978;28;20032;-70
2023/07/06 10:36:33;;;;;;;94.35;89.72;;;;;;;24.17;44.50;101669.59;5095333;28;20043;-71
2023/07/06 10:39:03;;;;;;;89.45;85.05;;;;;;;24.21;44.37;101670.59;5094730;28;20028;-70
2023/07/06 10:41:34;;;;;;;91.90;87.40;;;;;;;24.26;44.63;101678.75;5094782;28;20036;-72
2023/07/06 10:44:40;;;;;;;90.35;85.95;;;;;;;24.32;44.05;101674.75;5093331;28;20086;-70
2023/07/06 10:47:07;;;;;;;88.30;83.90;;;;;;;24.36;44.44;101678.50;5094579;28;20115;-72
2023/07/06 10:50:03;;;;;;;86.60;82.45;;;;;;;24.40;44.14;101670.44;5094414;28;20127;-70
2023/07/06 10:52:33;;;;;;;92.90;88.63;;;;;;;24.44;44.29;101674.16;5094959;28;20104;-74
2023/07/06 10:54:58;;;;;;;89.43;85.07;;;;;;;24.48;43.85;101677.97;5094802;28;20127;-71
2023/07/06 10:57:33;;;;;;;95.22;90.72;;;;;;;24.52;43.83;101686.44;5094619;28;20122;-71
2023/07/06 11:00:14;;;;;;;88.90;84.60;;;;;;;24.56;44.08;101679.16;5094140;28;20032;-69
2023/07/06 11:02:43;;;;;;;94.15;89.82;;;;;;;24.59;43.86;101687.66;5093334;28;20126;-71
2023/07/06 11:05:24;;;;;;;92.95;88.45;;;;;;;24.63;43.65;101682.31;5092826;28;20035;-71
2023/07/06 11:07:52;;;;;;;95.40;90.60;;;;;;;24.66;43.93;101687.19;5093919;28;20502;-70
2023/07/06 11:10:43;;;;;;;95.20;90.60;;;;;;;24.69;43.89;101682.97;5094250;28;20528;-70
2023/07/06 11:13:08;;;;;;;95.20;90.78;;;;;;;24.71;43.50;101681.53;5094080;28;20125;-71
2023/07/06 11:15:43;;;;;;;94.88;90.63;;;;;;;24.74;43.65;101680.09;5094027;28;20031;-72
2023/07/06 11:18:22;;;;;;;96.60;92.30;;;;;;;24.76;43.80;101677.81;5094128;28;20027;-80
2023/07/06 11:20:52;;;;;;;89.85;85.93;;;;;;;24.78;43.85;101679.13;5093919;28;20478;-70